Time;durP1;ratioP1;P1;durP2;ratioP2;P2;SDS_P1;SDS_P2;PMS_P1;PMS_P2;Temp;Humidity;BMP_temperature;BMP_pressure;BME280_temperature;BME280_humidity;BME280_pressure;Samples;Min_cycle;Max_cycle;Signal;HPM_P1;HPM_P2
2022/01/06 00:00:28;;;;;;;20.47;4.40;;;4.10;99.90;;;;;;5119015;27;20848;-54
2022/01/06 00:02:57;;;;;;;16.53;3.97;;;4.10;99.90;;;;;;5114448;28;20256;-52
2022/01/06 00:05:25;;;;;;;14.53;4.10;;;4.00;99.90;;;;;;5115360;28;20212;-54
2022/01/06 00:07:53;;;;;;;23.43;5.27;;;4.00;99.90;;;;;;5114795;28;20226;-53
2022/01/06 00:10:23;;;;;;;18.00;4.07;;;4.00;99.90;;;;;;5115438;28;20284;-51
2022/01/06 00:13:05;;;;;;;19.07;4.07;;;3.90;99.90;;;;;;5114517;28;20196;-54
2022/01/06 00:15:41;;;;;;;16.57;4.03;;;3.90;99.90;;;;;;5115190;28;20201;-53
2022/01/06 00:18:17;;;;;;;20.67;4.77;;;3.90;99.90;;;;;;5114589;28;20729;-54
2022/01/06 00:23:34;;;;;;;18.20;5.13;;;3.90;99.90;;;;;;5114566;28;20223;-54
2022/01/06 00:26:03;;;;;;;21.00;5.30;;;4.00;99.90;;;;;;5098680;28;20197;-53
2022/01/06 00:28:31;;;;;;;29.60;7.63;;;4.00;99.90;;;;;;5093679;28;20229;-52
2022/01/06 00:31:01;;;;;;;27.83;9.10;;;4.00;99.90;;;;;;5094261;28;20217;-53
2022/01/06 00:33:31;;;;;;;17.07;5.50;;;4.00;99.90;;;;;;5094056;28;20251;-54
2022/01/06 00:36:00;;;;;;;15.83;4.93;;;4.00;99.90;;;;;;5113401;28;20254;-54
2022/01/06 00:38:28;;;;;;;12.77;3.77;;;4.10;99.90;;;;;;5114602;28;20281;-54
2022/01/06 00:40:57;;;;;;;13.83;4.40;;;4.10;99.90;;;;;;5114403;28;20200;-54
2022/01/06 00:43:25;;;;;;;12.30;3.73;;;4.20;99.90;;;;;;5113888;28;20221;-54
2022/01/06 00:45:53;;;;;;;19.50;4.43;;;4.20;99.90;;;;;;5114675;28;20642;-54
2022/01/06 00:48:23;;;;;;;18.87;4.13;;;4.20;99.90;;;;;;5114216;28;20225;-54
2022/01/06 00:50:51;;;;;;;19.37;4.97;;;4.10;99.90;;;;;;5113968;28;20601;-54
2022/01/06 00:53:19;;;;;;;19.70;4.27;;;4.10;99.90;;;;;;5107713;28;20614;-52
2022/01/06 00:55:47;;;;;;;12.63;4.17;;;4.10;99.90;;;;;;5114274;28;20646;-54
2022/01/06 00:58:15;;;;;;;20.10;4.30;;;4.10;99.90;;;;;;5112424;28;20662;-53
2022/01/06 01:00:43;;;;;;;15.43;4.63;;;4.10;99.90;;;;;;5095363;28;20208;-55
2022/01/06 01:03:14;;;;;;;16.30;4.90;;;4.10;99.90;;;;;;5106038;28;20213;-54
2022/01/06 01:05:46;;;;;;;15.57;4.20;;;4.10;99.90;;;;;;5114242;28;20203;-53
2022/01/06 01:08:14;;;;;;;14.50;4.27;;;4.20;99.90;;;;;;5113472;28;20227;-54
2022/01/06 01:10:43;;;;;;;18.40;5.53;;;4.20;99.90;;;;;;5113622;28;20206;-53
2022/01/06 01:13:13;;;;;;;13.83;4.07;;;4.20;99.90;;;;;;5113732;28;20260;-54
2022/01/06 01:15:46;;;;;;;22.07;5.33;;;4.20;99.90;;;;;;5113581;28;20676;-53
2022/01/06 01:18:18;;;;;;;16.77;4.00;;;4.20;99.90;;;;;;5113660;28;20223;-55
2022/01/06 01:20:48;;;;;;;15.80;4.43;;;4.20;99.90;;;;;;5113610;28;20208;-54
2022/01/06 01:23:17;;;;;;;14.93;4.10;;;4.30;99.90;;;;;;5113853;28;20542;-56
2022/01/06 01:25:45;;;;;;;13.53;4.00;;;4.30;99.90;;;;;;5113490;28;20211;-54
2022/01/06 01:28:15;;;;;;;13.60;4.07;;;4.30;99.90;;;;;;5113786;28;20222;-53
2022/01/06 01:31:00;;;;;;;15.50;4.33;;;4.30;99.90;;;;;;5113443;28;20619;-54
2022/01/06 01:33:30;;;;;;;13.60;5.00;;;4.30;99.90;;;;;;5113893;28;20196;-56
2022/01/06 01:35:59;;;;;;;18.73;4.50;;;4.30;99.90;;;;;;5113158;28;20691;-55
2022/01/06 01:38:28;;;;;;;12.77;3.90;;;4.30;99.90;;;;;;5113082;28;20752;-52
2022/01/06 01:40:56;;;;;;;14.83;3.83;;;4.30;99.90;;;;;;5113541;28;20618;-54
2022/01/06 01:43:24;;;;;;;16.53;4.30;;;4.30;99.90;;;;;;5112437;28;20218;-55
2022/01/06 01:45:56;;;;;;;12.57;4.27;;;4.30;99.90;;;;;;5113717;28;20234;-54
2022/01/06 01:48:31;;;;;;;14.20;3.83;;;4.30;99.90;;;;;;5119184;27;20695;-56
2022/01/06 01:51:01;;;;;;;14.03;4.03;;;4.30;99.90;;;;;;5133979;27;20387;-54
2022/01/06 01:53:29;;;;;;;16.40;4.17;;;4.30;99.90;;;;;;5113201;27;20265;-53
2022/01/06 01:55:57;;;;;;;12.00;3.77;;;4.30;99.90;;;;;;5112882;28;20576;-54
2022/01/06 01:58:25;;;;;;;17.90;3.80;;;4.30;99.90;;;;;;5111907;28;20266;-53
2022/01/06 02:00:54;;;;;;;22.13;4.67;;;4.30;99.90;;;;;;5112711;28;20242;-54
2022/01/06 02:03:22;;;;;;;16.37;4.47;;;4.30;99.90;;;;;;5111975;28;20221;-53
2022/01/06 02:05:50;;;;;;;18.83;4.50;;;4.30;99.90;;;;;;5112288;28;20237;-54
2022/01/06 02:08:20;;;;;;;15.97;3.87;;;4.30;99.90;;;;;;5112732;28;20226;-53
2022/01/06 02:10:48;;;;;;;13.77;3.90;;;4.30;99.90;;;;;;5104052;28;20242;-54
2022/01/06 02:13:16;;;;;;;14.43;4.00;;;4.30;99.90;;;;;;5092007;28;20201;-54
2022/01/06 02:15:44;;;;;;;15.80;3.70;;;4.30;99.90;;;;;;5092174;28;20239;-54
2022/01/06 02:18:12;;;;;;;15.87;4.00;;;4.30;99.90;;;;;;5091923;28;20228;-54
2022/01/06 02:20:42;;;;;;;17.40;4.13;;;4.40;99.90;;;;;;5118107;27;20244;-53
2022/01/06 02:23:10;;;;;;;13.87;3.87;;;4.40;99.90;;;;;;5112213;28;20735;-53
2022/01/06 02:25:38;;;;;;;14.87;3.53;;;4.30;99.90;;;;;;5112316;28;20665;-54
2022/01/06 02:28:07;;;;;;;14.93;4.40;;;4.30;99.90;;;;;;5111399;28;20229;-54
2022/01/06 02:30:36;;;;;;;15.03;3.50;;;4.30;99.90;;;;;;5112387;28;20265;-54
2022/01/06 02:33:06;;;;;;;15.60;4.37;;;4.30;99.90;;;;;;5111729;28;20258;-55
2022/01/06 02:35:34;;;;;;;14.23;4.20;;;4.30;99.90;;;;;;5112034;28;20209;-55
2022/01/06 02:38:04;;;;;;;14.43;4.40;;;4.30;99.90;;;;;;5092099;28;20265;-55
2022/01/06 02:40:32;;;;;;;19.33;4.00;;;4.30;99.90;;;;;;5092057;28;20235;-53
2022/01/06 02:43:02;;;;;;;14.93;3.50;;;4.30;99.90;;;;;;5105469;28;20265;-54
2022/01/06 02:45:31;;;;;;;13.30;4.13;;;4.30;99.90;;;;;;5125856;27;20250;-54
2022/01/06 02:48:05;;;;;;;13.60;3.80;;;4.30;99.90;;;;;;5133038;27;20224;-53
2022/01/06 02:50:33;;;;;;;13.27;4.20;;;4.20;99.90;;;;;;5091097;28;20718;-54
2022/01/06 02:53:03;;;;;;;11.47;3.70;;;4.20;99.90;;;;;;5107551;28;20258;-55
2022/01/06 02:55:32;;;;;;;15.63;4.20;;;4.20;99.90;;;;;;5111787;28;20207;-54
2022/01/06 02:58:00;;;;;;;10.83;3.90;;;4.20;99.90;;;;;;5111043;28;20263;-52
2022/01/06 03:00:28;;;;;;;17.20;3.70;;;4.20;99.90;;;;;;5094940;28;20669;-54
2022/01/06 03:02:57;;;;;;;13.30;4.07;;;4.20;99.90;;;;;;5102297;28;20209;-52
2022/01/06 03:05:25;;;;;;;13.90;4.53;;;4.20;99.90;;;;;;5111638;28;20816;-54
2022/01/06 03:07:53;;;;;;;17.57;3.80;;;4.20;99.90;;;;;;5110964;28;20261;-53
2022/01/06 03:10:23;;;;;;;13.87;4.57;;;4.20;99.90;;;;;;5111980;28;20278;-54
2022/01/06 03:12:51;;;;;;;12.27;3.67;;;4.20;99.90;;;;;;5111866;28;20278;-54
2022/01/06 03:15:21;;;;;;;19.33;4.50;;;4.20;99.90;;;;;;5112043;28;20208;-54
2022/01/06 03:17:51;;;;;;;13.63;4.10;;;4.20;99.90;;;;;;5111381;28;20259;-54
2022/01/06 03:20:21;;;;;;;17.97;4.67;;;4.20;99.90;;;;;;5107364;28;20247;-52
2022/01/06 03:22:49;;;;;;;18.13;4.30;;;4.20;99.90;;;;;;5131147;27;20201;-53
2022/01/06 03:25:18;;;;;;;14.23;4.80;;;4.20;99.90;;;;;;5132524;27;20269;-54
2022/01/06 03:27:48;;;;;;;15.50;4.40;;;4.20;99.90;;;;;;5131631;27;20234;-53
2022/01/06 03:30:18;;;;;;;13.80;5.17;;;4.30;99.90;;;;;;5132318;27;20668;-55
2022/01/06 03:32:47;;;;;;;14.90;4.40;;;4.20;99.90;;;;;;5131539;27;20813;-55
2022/01/06 03:35:18;;;;;;;16.13;4.80;;;4.20;99.90;;;;;;5119045;28;20234;-53
2022/01/06 03:37:46;;;;;;;12.53;3.53;;;4.20;99.90;;;;;;5111482;28;20232;-55
2022/01/06 03:40:15;;;;;;;15.53;4.17;;;4.20;99.90;;;;;;5112426;28;20201;-54
2022/01/06 03:42:43;;;;;;;16.83;4.07;;;4.20;99.90;;;;;;5131621;28;20269;-51
2022/01/06 03:45:14;;;;;;;20.73;4.47;;;4.20;99.90;;;;;;5117299;28;20269;-54
2022/01/06 03:47:43;;;;;;;13.00;4.63;;;4.10;99.90;;;;;;5091225;28;20691;-54
2022/01/06 03:50:12;;;;;;;17.47;4.67;;;4.10;99.90;;;;;;5107916;28;20209;-54
2022/01/06 03:52:40;;;;;;;14.17;4.20;;;4.00;99.90;;;;;;5116510;28;20251;-53
2022/01/06 03:55:11;;;;;;;14.50;4.43;;;3.90;99.90;;;;;;5132411;28;20216;-55
2022/01/06 03:57:39;;;;;;;15.73;4.00;;;3.80;99.90;;;;;;5130815;28;20612;-55
2022/01/06 04:00:11;;;;;;;15.07;4.67;;;3.80;99.90;;;;;;5117858;28;20667;-54
2022/01/06 04:02:40;;;;;;;17.43;5.30;;;3.70;99.90;;;;;;5110234;28;20257;-54
2022/01/06 04:05:10;;;;;;;18.20;4.93;;;3.60;99.90;;;;;;5111147;28;20230;-54
2022/01/06 04:07:40;;;;;;;12.70;4.43;;;3.60;99.90;;;;;;5110554;28;20254;-54
2022/01/06 04:10:10;;;;;;;18.03;5.23;;;3.50;99.90;;;;;;5111056;28;20211;-53
2022/01/06 04:12:39;;;;;;;23.57;5.17;;;3.50;99.90;;;;;;5110540;28;20228;-53
2022/01/06 04:15:11;;;;;;;15.43;5.27;;;3.60;99.90;;;;;;5111453;28;20198;-53
2022/01/06 04:17:41;;;;;;;19.17;5.00;;;3.60;99.90;;;;;;5099204;28;20224;-53
2022/01/06 04:20:10;;;;;;;14.30;4.53;;;3.60;99.90;;;;;;5118935;28;20198;-54
2022/01/06 04:22:39;;;;;;;16.90;5.23;;;3.60;99.90;;;;;;5131134;28;20711;-54
2022/01/06 04:25:08;;;;;;;16.50;6.43;;;3.60;99.90;;;;;;5131355;28;20277;-54
2022/01/06 04:27:37;;;;;;;19.33;5.80;;;3.60;99.90;;;;;;5130851;28;20235;-54
2022/01/06 04:30:07;;;;;;;14.00;5.27;;;3.60;99.90;;;;;;5131275;28;20204;-54
2022/01/06 04:32:35;;;;;;;13.97;5.33;;;3.60;99.90;;;;;;5112251;28;20249;-53
2022/01/06 04:35:07;;;;;;;16.13;4.90;;;3.60;99.90;;;;;;5113769;28;20830;-53
2022/01/06 04:37:35;;;;;;;11.83;5.13;;;3.60;99.90;;;;;;5125268;27;20281;-57
2022/01/06 04:40:04;;;;;;;16.63;5.03;;;3.60;99.90;;;;;;5135864;27;20203;-54
2022/01/06 04:42:32;;;;;;;17.87;5.93;;;3.70;99.90;;;;;;5101489;27;20229;-54
2022/01/06 04:45:00;;;;;;;16.10;5.27;;;3.60;99.90;;;;;;5099413;28;20743;-53
2022/01/06 04:47:28;;;;;;;12.87;5.07;;;3.60;99.90;;;;;;5114178;28;20255;-53
2022/01/06 04:49:57;;;;;;;14.83;5.03;;;3.70;99.90;;;;;;5114939;28;20208;-53
2022/01/06 04:52:26;;;;;;;13.70;5.70;;;3.70;99.90;;;;;;5116128;27;20248;-54
2022/01/06 04:54:54;;;;;;;14.97;4.73;;;3.70;99.90;;;;;;5114664;28;20275;-53
2022/01/06 04:57:22;;;;;;;16.23;4.53;;;3.60;99.90;;;;;;5113744;28;20256;-53
2022/01/06 04:59:50;;;;;;;20.57;5.17;;;3.50;99.90;;;;;;5103104;28;20263;-53
2022/01/06 05:02:18;;;;;;;17.03;4.47;;;3.40;99.90;;;;;;5100104;28;20195;-53
2022/01/06 05:04:47;;;;;;;15.23;4.67;;;3.30;99.90;;;;;;5114972;28;20223;-52
2022/01/06 05:07:15;;;;;;;13.27;4.47;;;3.30;99.90;;;;;;5115019;28;20288;-52
2022/01/06 05:09:44;;;;;;;14.73;5.03;;;3.30;99.90;;;;;;5115242;28;20213;-54
2022/01/06 05:12:12;;;;;;;15.13;4.47;;;3.30;99.90;;;;;;5113383;28;20237;-53
2022/01/06 05:14:41;;;;;;;11.00;3.90;;;3.30;99.90;;;;;;5113921;28;20257;-53
2022/01/06 05:17:10;;;;;;;17.50;4.53;;;3.30;99.90;;;;;;5114360;28;20363;-54
2022/01/06 05:19:38;;;;;;;15.03;4.37;;;3.40;99.90;;;;;;5103692;28;20617;-53
2022/01/06 05:22:06;;;;;;;11.87;4.50;;;3.40;99.90;;;;;;5113520;28;20664;-54
2022/01/06 05:24:37;;;;;;;15.27;4.57;;;3.40;99.90;;;;;;5113613;28;20261;-54
2022/01/06 05:27:10;;;;;;;16.97;4.27;;;3.40;99.90;;;;;;5113016;28;20236;-55
2022/01/06 05:29:38;;;;;;;15.73;4.47;;;3.40;99.90;;;;;;5113999;28;20213;-55
2022/01/06 05:32:07;;;;;;;11.87;4.13;;;3.40;99.90;;;;;;5112878;28;20651;-55
2022/01/06 05:34:35;;;;;;;12.33;4.10;;;3.40;99.90;;;;;;5123378;27;20238;-54
2022/01/06 05:37:04;;;;;;;14.87;4.87;;;3.40;99.90;;;;;;5094467;28;20231;-53
2022/01/06 05:39:32;;;;;;;16.03;3.97;;;3.40;99.90;;;;;;5113734;28;20235;-54
2022/01/06 05:42:00;;;;;;;12.67;4.30;;;3.40;99.90;;;;;;5113414;28;20200;-55
2022/01/06 05:44:33;;;;;;;13.80;4.37;;;3.40;99.90;;;;;;5100413;28;20237;-53
2022/01/06 05:47:02;;;;;;;16.23;4.43;;;3.50;99.90;;;;;;5113665;28;20227;-52
2022/01/06 05:49:30;;;;;;;13.73;4.80;;;3.40;99.90;;;;;;5112736;28;20581;-54
2022/01/06 05:51:59;;;;;;;12.50;5.23;;;3.40;99.90;;;;;;5112874;28;20261;-54
2022/01/06 05:54:27;;;;;;;11.37;6.13;;;3.30;99.90;;;;;;5112507;28;20207;-54
2022/01/06 05:56:55;;;;;;;22.47;8.00;;;3.30;99.90;;;;;;5113192;28;20283;-54
2022/01/06 05:59:23;;;;;;;14.73;5.33;;;3.20;99.90;;;;;;5112243;28;20234;-53
2022/01/06 06:01:52;;;;;;;18.67;6.00;;;3.20;99.90;;;;;;5112220;28;20577;-54
2022/01/06 06:04:21;;;;;;;19.97;8.20;;;3.10;99.90;;;;;;5112883;28;20212;-55
2022/01/06 06:06:49;;;;;;;21.27;7.20;;;3.10;99.90;;;;;;5113003;28;20712;-54
2022/01/06 06:09:17;;;;;;;21.47;6.67;;;3.10;99.90;;;;;;5112929;28;20210;-54
2022/01/06 06:11:45;;;;;;;22.40;6.87;;;3.20;99.90;;;;;;5112292;28;20935;-54
2022/01/06 06:14:13;;;;;;;18.47;7.27;;;3.10;99.90;;;;;;5112119;28;20672;-54
2022/01/06 06:16:41;;;;;;;26.63;9.60;;;3.10;99.90;;;;;;5112649;28;20252;-54
2022/01/06 06:19:11;;;;;;;25.27;10.90;;;3.10;99.90;;;;;;5112767;28;20706;-52
2022/01/06 06:21:39;;;;;;;23.57;10.23;;;3.10;99.90;;;;;;5112256;28;20246;-57
2022/01/06 06:24:07;;;;;;;21.77;8.83;;;3.10;99.90;;;;;;5112724;28;20255;-56
2022/01/06 06:26:35;;;;;;;22.10;8.33;;;3.10;99.90;;;;;;5106332;28;20269;-54
2022/01/06 06:29:04;;;;;;;18.87;8.27;;;3.10;99.90;;;;;;5091823;28;20211;-53
2022/01/06 06:31:32;;;;;;;18.03;7.57;;;3.10;99.90;;;;;;5109915;28;20613;-53
2022/01/06 06:34:00;;;;;;;20.67;8.63;;;3.10;99.90;;;;;;5098505;28;20290;-53
2022/01/06 06:36:30;;;;;;;17.50;7.70;;;3.10;99.90;;;;;;5097072;28;20227;-53
2022/01/06 06:38:58;;;;;;;16.67;6.37;;;3.20;99.90;;;;;;5107998;28;20208;-54
2022/01/06 06:41:26;;;;;;;19.20;6.67;;;3.20;99.90;;;;;;5111982;28;20205;-54
2022/01/06 06:43:54;;;;;;;16.83;6.97;;;3.10;99.90;;;;;;5111233;28;20203;-54
2022/01/06 06:46:23;;;;;;;16.57;6.53;;;3.10;99.90;;;;;;5111857;28;20642;-54
2022/01/06 06:48:51;;;;;;;20.00;6.30;;;3.00;99.90;;;;;;5111971;28;20206;-54
2022/01/06 06:51:20;;;;;;;16.83;6.90;;;3.00;99.90;;;;;;5094450;28;20204;-53
2022/01/06 06:53:49;;;;;;;13.70;4.77;;;3.00;99.90;;;;;;5105744;28;20238;-53
2022/01/06 06:56:17;;;;;;;20.90;8.67;;;3.00;99.90;;;;;;5105361;28;20620;-52
2022/01/06 06:58:45;;;;;;;16.67;5.80;;;3.00;99.90;;;;;;5090991;28;20208;-54
2022/01/06 07:01:14;;;;;;;18.43;6.47;;;3.00;99.90;;;;;;5091423;28;20204;-53
2022/01/06 07:03:43;;;;;;;12.87;6.40;;;2.90;99.90;;;;;;5108969;28;20238;-55
2022/01/06 07:06:11;;;;;;;17.13;4.93;;;2.90;99.90;;;;;;5111507;28;20391;-56
2022/01/06 07:08:39;;;;;;;12.00;4.40;;;2.90;99.90;;;;;;5110829;28;20272;-54
2022/01/06 07:11:08;;;;;;;17.30;5.07;;;3.00;99.90;;;;;;5112204;28;20203;-54
2022/01/06 07:13:36;;;;;;;7.60;4.00;;;3.00;99.90;;;;;;5110703;28;20246;-53
2022/01/06 07:16:05;;;;;;;10.07;3.80;;;3.00;99.90;;;;;;5111907;28;20210;-53
2022/01/06 07:18:34;;;;;;;12.00;5.33;;;3.10;99.90;;;;;;5110699;28;20661;-54
2022/01/06 07:21:02;;;;;;;16.53;5.50;;;3.00;99.90;;;;;;5111396;28;20209;-53
2022/01/06 07:23:30;;;;;;;10.23;5.00;;;3.10;99.90;;;;;;5111048;28;20794;-55
2022/01/06 07:25:58;;;;;;;12.27;5.13;;;3.00;99.90;;;;;;5118601;27;20226;-54
2022/01/06 07:28:28;;;;;;;10.67;4.63;;;2.90;99.90;;;;;;5099623;27;20232;-54
2022/01/06 07:30:56;;;;;;;10.43;5.10;;;2.90;99.90;;;;;;5103848;28;20203;-53
2022/01/06 07:33:24;;;;;;;20.07;5.43;;;2.80;99.90;;;;;;5110825;28;20257;-54
2022/01/06 07:35:52;;;;;;;16.07;6.17;;;2.80;99.90;;;;;;5103808;28;20224;-54
2022/01/06 07:38:20;;;;;;;15.43;6.13;;;2.80;99.90;;;;;;5109877;28;20229;-55
2022/01/06 07:40:48;;;;;;;13.23;6.93;;;2.70;99.90;;;;;;5111329;28;20206;-54
2022/01/06 07:43:16;;;;;;;17.23;7.83;;;2.70;99.90;;;;;;5110926;28;20199;-54
2022/01/06 07:45:46;;;;;;;12.57;6.77;;;2.60;99.90;;;;;;5111233;28;20275;-53
2022/01/06 07:48:19;;;;;;;14.40;6.30;;;2.60;99.90;;;;;;5111175;28;20611;-54
2022/01/06 07:50:48;;;;;;;15.40;6.23;;;2.60;99.90;;;;;;5111560;28;20611;-53
2022/01/06 07:53:16;;;;;;;11.60;5.63;;;2.70;99.90;;;;;;5110650;28;20215;-54
2022/01/06 07:55:44;;;;;;;11.47;5.87;;;2.70;99.90;;;;;;5110976;28;20201;-53
2022/01/06 07:58:12;;;;;;;11.03;5.67;;;2.80;99.90;;;;;;5110993;28;20270;-53
2022/01/06 08:00:40;;;;;;;12.80;5.33;;;2.80;99.90;;;;;;5093334;28;20718;-53
2022/01/06 08:03:10;;;;;;;13.90;5.63;;;2.90;99.90;;;;;;5103637;28;20232;-55
2022/01/06 08:05:38;;;;;;;11.57;4.87;;;2.80;99.90;;;;;;5111289;28;20234;-55
2022/01/06 08:08:06;;;;;;;10.03;4.03;;;2.80;99.90;;;;;;5113462;28;20258;-55
2022/01/06 08:10:35;;;;;;;12.60;4.80;;;2.70;99.90;;;;;;5114906;28;20234;-56
2022/01/06 08:13:03;;;;;;;13.03;4.33;;;2.70;99.90;;;;;;5114705;28;20692;-55
2022/01/06 08:15:31;;;;;;;11.60;4.97;;;2.70;99.90;;;;;;5114996;28;20683;-55
2022/01/06 08:17:59;;;;;;;11.97;6.00;;;2.80;99.90;;;;;;5115413;28;20251;-55
2022/01/06 08:20:28;;;;;;;11.07;5.40;;;2.80;99.90;;;;;;5114105;28;20557;-54
2022/01/06 08:22:56;;;;;;;11.40;5.00;;;2.80;99.90;;;;;;5126290;27;20207;-53
2022/01/06 08:25:25;;;;;;;10.93;4.57;;;2.90;99.90;;;;;;5094570;28;20204;-53
2022/01/06 08:27:53;;;;;;;16.10;4.63;;;2.90;99.90;;;;;;5112821;28;20227;-52
2022/01/06 08:30:21;;;;;;;10.53;4.57;;;2.90;99.90;;;;;;5115236;28;20256;-54
2022/01/06 08:32:49;;;;;;;11.67;4.60;;;3.00;99.90;;;;;;5114207;28;20200;-54
2022/01/06 08:35:17;;;;;;;7.57;3.90;;;3.00;99.90;;;;;;5114754;28;20223;-54
2022/01/06 08:37:47;;;;;;;11.70;4.23;;;2.90;99.90;;;;;;5103652;28;20674;-52
2022/01/06 08:40:15;;;;;;;12.47;5.57;;;2.90;99.90;;;;;;5105205;28;20214;-53
2022/01/06 08:42:46;;;;;;;13.27;5.93;;;2.90;99.90;;;;;;5113431;28;20217;-54
2022/01/06 08:45:16;;;;;;;17.30;5.33;;;2.90;99.90;;;;;;5115090;28;20203;-54
2022/01/06 08:47:45;;;;;;;12.90;6.20;;;2.90;99.90;;;;;;5114391;28;20292;-54
2022/01/06 08:50:17;;;;;;;13.80;5.90;;;2.80;99.90;;;;;;5114932;28;20214;-57
2022/01/06 08:52:47;;;;;;;15.73;5.80;;;2.90;99.90;;;;;;5113277;28;20204;-54
2022/01/06 08:55:15;;;;;;;19.27;11.20;;;2.90;99.90;;;;;;5114739;28;20208;-54
2022/01/06 08:57:43;;;;;;;13.30;6.20;;;2.90;99.90;;;;;;5115489;27;20254;-53
2022/01/06 09:00:16;;;;;;;14.37;6.80;;;2.90;99.90;;;;;;5105020;27;20298;-53
2022/01/06 09:02:44;;;;;;;15.40;4.87;;;2.90;99.90;;;;;;5103207;28;20191;-54
2022/01/06 09:05:13;;;;;;;10.37;4.77;;;2.90;99.90;;;;;;5113811;28;20212;-53
2022/01/06 09:07:42;;;;;;;11.23;5.00;;;2.90;99.90;;;;;;5113961;28;20253;-55
2022/01/06 09:10:11;;;;;;;14.27;5.07;;;2.90;99.90;;;;;;5114295;28;20210;-53
2022/01/06 09:12:42;;;;;;;14.43;6.83;;;2.90;99.90;;;;;;5113468;28;20673;-54
2022/01/06 09:15:10;;;;;;;10.60;4.87;;;2.90;99.90;;;;;;5113737;28;20250;-52
2022/01/06 09:17:39;;;;;;;9.97;5.10;;;2.90;99.90;;;;;;5113734;28;20712;-55
2022/01/06 09:20:09;;;;;;;13.37;5.23;;;2.90;99.90;;;;;;5119711;27;20210;-54
2022/01/06 09:22:40;;;;;;;12.87;5.27;;;2.90;99.90;;;;;;5113347;28;20194;-54
2022/01/06 09:25:08;;;;;;;12.37;5.33;;;2.90;99.90;;;;;;5113924;28;20207;-54
2022/01/06 09:27:38;;;;;;;12.07;4.60;;;2.90;99.90;;;;;;5113107;28;20233;-54
2022/01/06 09:30:08;;;;;;;9.67;4.33;;;3.00;99.90;;;;;;5113707;28;20248;-54
2022/01/06 09:32:38;;;;;;;8.47;4.47;;;3.00;99.90;;;;;;5113254;28;20207;-53
2022/01/06 09:35:07;;;;;;;13.40;5.07;;;3.00;99.90;;;;;;5108256;28;20729;-53
2022/01/06 09:37:35;;;;;;;13.20;4.70;;;3.10;99.90;;;;;;5103292;28;20246;-54
2022/01/06 09:40:06;;;;;;;12.10;4.43;;;3.10;99.90;;;;;;5093257;28;20673;-53
2022/01/06 09:42:34;;;;;;;11.27;4.27;;;3.10;99.90;;;;;;5092568;28;20246;-54
2022/01/06 09:45:04;;;;;;;12.30;4.50;;;3.10;99.90;;;;;;5093105;28;20600;-53
2022/01/06 09:47:33;;;;;;;12.20;5.53;;;3.20;99.90;;;;;;5092865;28;20225;-54
2022/01/06 09:50:09;;;;;;;13.63;10.47;;;3.20;99.90;;;;;;5092814;28;20188;-54
2022/01/06 09:52:37;;;;;;;12.20;6.10;;;3.30;99.90;;;;;;5096691;28;20195;-54
2022/01/06 09:55:06;;;;;;;14.50;5.23;;;3.30;99.90;;;;;;5131185;27;20206;-54
2022/01/06 09:57:34;;;;;;;14.20;5.50;;;3.30;99.90;;;;;;5133550;27;20223;-55
2022/01/06 10:00:08;;;;;;;12.40;5.60;;;3.30;99.90;;;;;;5120621;27;20206;-54
2022/01/06 10:02:38;;;;;;;13.57;5.57;;;3.30;99.90;;;;;;5113128;28;20208;-55
2022/01/06 10:05:07;;;;;;;11.67;6.87;;;3.30;99.90;;;;;;5113012;28;20211;-57
2022/01/06 10:07:37;;;;;;;12.77;6.70;;;3.40;99.90;;;;;;5112858;28;20640;-53
2022/01/06 10:10:07;;;;;;;19.17;7.40;;;3.40;99.90;;;;;;5113110;28;20240;-52
2022/01/06 10:12:38;;;;;;;14.03;6.40;;;3.40;99.90;;;;;;5112782;28;20218;-53
2022/01/06 10:15:18;;;;;;;15.60;5.20;;;3.40;99.90;;;;;;5102341;28;20698;-54
2022/01/06 10:17:46;;;;;;;12.87;5.20;;;3.50;99.90;;;;;;5112259;28;20686;-52
2022/01/06 10:20:16;;;;;;;13.67;4.63;;;3.50;99.90;;;;;;5107636;28;20211;-54
2022/01/06 10:22:46;;;;;;;7.93;4.50;;;3.50;99.90;;;;;;5102877;28;20201;-53
2022/01/06 10:25:16;;;;;;;9.63;4.43;;;3.50;99.90;;;;;;5112087;28;20204;-54
2022/01/06 10:27:46;;;;;;;8.30;3.77;;;3.60;99.90;;;;;;5110904;28;20632;-53
2022/01/06 10:30:16;;;;;;;7.90;3.77;;;3.60;99.90;;;;;;5111377;28;20212;-53
2022/01/06 10:32:45;;;;;;;10.87;3.93;;;3.70;99.90;;;;;;5111849;28;20212;-53
2022/01/06 10:35:20;;;;;;;11.73;6.30;;;3.70;99.90;;;;;;5112075;28;20199;-55
2022/01/06 10:37:49;;;;;;;11.87;4.97;;;3.70;99.90;;;;;;5111843;28;20574;-54
2022/01/06 10:40:22;;;;;;;13.57;4.70;;;3.70;99.90;;;;;;5111909;28;20241;-56
2022/01/06 10:42:52;;;;;;;11.50;5.00;;;3.80;99.90;;;;;;5111650;28;20214;-54
2022/01/06 10:45:25;;;;;;;10.47;5.97;;;3.70;99.90;;;;;;5111771;28;20211;-54
2022/01/06 10:47:55;;;;;;;12.40;5.90;;;3.80;99.90;;;;;;5108948;28;20681;-53
2022/01/06 10:50:26;;;;;;;16.87;6.57;;;3.70;99.90;;;;;;5101257;28;20249;-55
2022/01/06 10:52:56;;;;;;;14.87;8.63;;;3.80;99.90;;;;;;5110948;28;20203;-54
2022/01/06 10:55:27;;;;;;;19.93;10.70;;;3.80;99.90;;;;;;5112451;28;20227;-54
2022/01/06 10:57:59;;;;;;;18.53;8.30;;;3.80;99.90;;;;;;5093373;28;20227;-53
2022/01/06 11:00:30;;;;;;;14.40;6.53;;;3.80;99.90;;;;;;5095855;28;20648;-54
2022/01/06 11:03:11;;;;;;;13.00;6.50;;;3.90;99.90;;;;;;5102428;28;20233;-54
2022/01/06 11:05:43;;;;;;;19.90;9.20;;;3.90;99.90;;;;;;5112072;28;20228;-54
2022/01/06 11:08:12;;;;;;;18.27;10.40;;;4.00;99.90;;;;;;5110755;28;20351;-55
2022/01/06 11:10:47;;;;;;;10.37;5.27;;;4.10;99.90;;;;;;5111958;27;20537;-55
2022/01/06 11:13:17;;;;;;;10.03;5.60;;;4.00;99.90;;;;;;5103831;27;20206;-55
2022/01/06 11:15:46;;;;;;;11.13;5.27;;;4.10;99.90;;;;;;5101916;28;20197;-55
2022/01/06 11:18:20;;;;;;;12.07;6.53;;;4.10;99.90;;;;;;5110500;28;20713;-54
2022/01/06 11:20:49;;;;;;;10.70;5.60;;;4.10;99.90;;;;;;5130711;27;20204;-54
2022/01/06 11:23:21;;;;;;;11.93;4.50;;;4.20;99.90;;;;;;5112719;27;20936;-52
2022/01/06 11:26:05;;;;;;;10.77;4.80;;;4.20;99.90;;;;;;5110484;28;20199;-55
2022/01/06 11:28:34;;;;;;;13.67;7.17;;;4.30;99.90;;;;;;5110138;28;20275;-54
2022/01/06 11:31:16;;;;;;;34.87;21.77;;;4.20;99.90;;;;;;5110531;28;20249;-53
2022/01/06 11:33:46;;;;;;;19.77;10.40;;;4.20;99.90;;;;;;5110934;28;20187;-55
2022/01/06 11:36:24;;;;;;;12.03;4.83;;;4.20;99.90;;;;;;5117292;27;20209;-53
2022/01/06 11:38:53;;;;;;;11.93;6.90;;;4.20;99.90;;;;;;5110925;28;20253;-53
2022/01/06 11:41:25;;;;;;;11.87;6.67;;;4.20;99.90;;;;;;5111553;28;20264;-52
2022/01/06 11:43:57;;;;;;;15.20;9.00;;;4.30;99.90;;;;;;5117345;28;20268;-54
2022/01/06 11:46:27;;;;;;;17.40;5.80;;;4.30;99.90;;;;;;5117985;28;20204;-53
2022/01/06 11:48:58;;;;;;;25.97;14.27;;;4.40;99.90;;;;;;5108994;28;20688;-54
2022/01/06 11:51:28;;;;;;;38.03;22.53;;;4.40;99.90;;;;;;5097196;28;20227;-55
2022/01/06 11:53:58;;;;;;;22.73;12.03;;;4.50;99.90;;;;;;5113430;28;20205;-54
2022/01/06 11:56:26;;;;;;;14.73;5.60;;;4.50;99.90;;;;;;5118388;28;20729;-58
2022/01/06 11:58:59;;;;;;;15.80;5.53;;;4.60;99.90;;;;;;5117547;28;20660;-53
2022/01/06 12:01:29;;;;;;;26.90;13.67;;;4.60;99.90;;;;;;5117817;28;20789;-53
2022/01/06 12:03:58;;;;;;;18.90;12.53;;;4.60;99.90;;;;;;5137845;27;20699;-55
2022/01/06 12:06:33;;;;;;;16.57;7.70;;;4.60;99.90;;;;;;5137802;27;20206;-53
2022/01/06 12:09:01;;;;;;;23.50;16.40;;;4.70;99.90;;;;;;5119351;27;20840;-53
2022/01/06 12:11:33;;;;;;;19.67;12.90;;;4.80;99.90;;;;;;5103455;28;20198;-53
2022/01/06 12:14:02;;;;;;;13.87;7.90;;;4.80;99.90;;;;;;5117434;28;20228;-52
2022/01/06 12:16:34;;;;;;;20.13;13.67;;;4.90;99.90;;;;;;5117799;28;20227;-52
2022/01/06 12:19:13;;;;;;;8.90;4.27;;;5.00;99.90;;;;;;5113501;27;20205;-55
2022/01/06 12:21:41;;;;;;;18.17;5.90;;;5.00;99.90;;;;;;5138265;27;20209;-55
2022/01/06 12:24:11;;;;;;;12.23;4.50;;;5.00;99.90;;;;;;5119520;27;20265;-54
2022/01/06 12:26:40;;;;;;;10.53;4.57;;;5.00;99.90;;;;;;5117735;28;20272;-54
2022/01/06 12:29:14;;;;;;;7.13;4.10;;;5.00;99.90;;;;;;5117509;28;20289;-54
2022/01/06 12:31:43;;;;;;;7.93;4.43;;;5.00;99.90;;;;;;5117738;28;20672;-54
2022/01/06 12:34:14;;;;;;;6.07;3.30;;;4.90;99.90;;;;;;5117315;28;20203;-52
2022/01/06 12:36:44;;;;;;;8.73;3.20;;;4.90;99.90;;;;;;5117554;28;20229;-53
2022/01/06 12:39:15;;;;;;;11.37;3.50;;;4.90;99.90;;;;;;5117271;28;20223;-54
2022/01/06 12:41:44;;;;;;;11.03;3.47;;;4.90;99.90;;;;;;5118029;28;20237;-54
2022/01/06 12:44:18;;;;;;;8.73;2.93;;;4.80;99.90;;;;;;5117549;28;20730;-54
2022/01/06 12:46:48;;;;;;;9.87;3.87;;;4.80;99.90;;;;;;5117366;28;20733;-51
2022/01/06 12:49:16;;;;;;;9.47;3.47;;;4.70;99.90;;;;;;5117630;28;20546;-54
2022/01/06 12:51:47;;;;;;;11.37;4.77;;;4.70;99.90;;;;;;5116260;28;20210;-55
2022/01/06 12:54:19;;;;;;;10.10;5.97;;;4.70;99.90;;;;;;5114839;28;20618;-58
2022/01/06 12:56:51;;;;;;;20.27;16.20;;;4.60;99.90;;;;;;5114381;28;20230;-54
2022/01/06 12:59:24;;;;;;;14.20;10.20;;;4.60;99.90;;;;;;5107275;28;20206;-55
2022/01/06 13:01:58;;;;;;;11.77;6.57;;;4.60;99.90;;;;;;5095863;28;20749;-54